Time;durP1;ratioP1;P1;durP2;ratioP2;P2;SDS_P1;SDS_P2;PMS_P1;PMS_P2;Temp;Humidity;BMP_temperature;BMP_pressure;BME280_temperature;BME280_humidity;BME280_pressure;Samples;Min_cycle;Max_cycle;Signal;HPM_P1;HPM_P2
2023/10/27 00:02:28;;;;;;;19.98;17.85;;;;;;;12.89;100.00;99102.16;5333984;27;20110;-73
2023/10/27 00:05:00;;;;;;;23.48;17.20;;;;;;;12.86;100.00;99103.34;5335192;27;20015;-72
2023/10/27 00:07:32;;;;;;;23.40;17.90;;;;;;;12.86;100.00;99103.34;5335521;27;20058;-73
2023/10/27 00:10:04;;;;;;;20.48;17.58;;;;;;;12.84;100.00;99102.75;5334331;28;20033;-72
2023/10/27 00:12:36;;;;;;;21.33;17.63;;;;;;;12.87;100.00;99102.34;5336353;28;20488;-72
2023/10/27 00:15:08;;;;;;;26.45;17.95;;;;;;;12.86;100.00;99094.66;5335576;28;20008;-72
2023/10/27 00:17:40;;;;;;;21.42;18.00;;;;;;;12.88;100.00;99098.72;5336757;28;20023;-72
2023/10/27 00:20:13;;;;;;;18.92;16.73;;;;;;;12.81;100.00;99089.97;5335924;27;20037;-72
2023/10/27 00:22:45;;;;;;;21.50;17.83;;;;;;;12.89;100.00;99096.91;5331855;27;20518;-72
2023/10/27 00:25:17;;;;;;;22.70;17.65;;;;;;;12.87;100.00;99085.75;5339971;27;20027;-72
2023/10/27 00:27:48;;;;;;;23.90;19.08;;;;;;;12.89;100.00;99089.84;5338190;27;20040;-73
2023/10/27 00:30:20;;;;;;;24.70;18.05;;;;;;;12.87;100.00;99097.09;5338259;27;20027;-73
2023/10/27 00:32:52;;;;;;;23.50;18.48;;;;;;;12.86;100.00;99090.22;5341788;27;20032;-73
2023/10/27 00:35:24;;;;;;;30.02;19.88;;;;;;;12.85;100.00;99088.59;5337362;27;20487;-72
2023/10/27 00:37:57;;;;;;;23.95;19.50;;;;;;;12.84;100.00;99083.50;5340462;27;20429;-73
2023/10/27 00:40:29;;;;;;;;;;;;;;;13.55;100.00;99078.25;5339929;27;20026;-72
2023/10/27 00:43:05;;;;;;;22.58;18.52;;;;;;;13.01;100.00;99076.19;5338577;27;19915;-72
2023/10/27 00:45:38;;;;;;;25.70;19.17;;;;;;;12.85;100.00;99072.00;5339950;27;20036;-73
2023/10/27 00:48:09;;;;;;;23.85;19.85;;;;;;;12.82;100.00;99073.19;5332052;27;20115;-73
2023/10/27 00:50:42;;;;;;;24.35;20.80;;;;;;;12.84;100.00;99079.09;5335388;27;20035;-72
2023/10/27 00:53:18;;;;;;;26.88;20.13;;;;;;;12.96;100.00;99083.84;5338892;27;20062;-72
2023/10/27 00:55:50;;;;;;;26.35;21.02;;;;;;;12.85;100.00;99072.81;5338897;27;20028;-73
2023/10/27 00:58:22;;;;;;;28.60;20.13;;;;;;;12.87;100.00;99077.88;5338691;27;20380;-73
2023/10/27 01:00:57;;;;;;;24.27;20.40;;;;;;;12.98;100.00;99080.00;5337644;27;20424;-73
2023/10/27 01:03:29;;;;;;;26.05;20.27;;;;;;;12.84;100.00;99065.94;5338541;27;20023;-73
2023/10/27 01:06:01;;;;;;;23.90;19.25;;;;;;;12.88;100.00;99072.44;5338758;27;20038;-73
2023/10/27 01:08:33;;;;;;;23.23;19.05;;;;;;;12.85;100.00;99077.28;5338314;27;20035;-72
2023/10/27 01:11:07;;;;;;;23.35;18.13;;;;;;;12.93;100.00;99071.06;5340531;27;20285;-73
2023/10/27 01:13:39;;;;;;;28.00;19.80;;;;;;;12.89;100.00;99071.44;5340045;27;20027;-72
2023/10/27 01:16:11;;;;;;;25.15;18.73;;;;;;;12.88;100.00;99069.81;5324074;27;20023;-73
2023/10/27 01:18:43;;;;;;;26.42;18.63;;;;;;;12.88;100.00;99069.00;5339756;27;20391;-72
2023/10/27 01:21:15;;;;;;;25.45;17.60;;;;;;;12.87;100.00;99060.28;5337445;27;20091;-73
2023/10/27 01:23:47;;;;;;;22.47;17.70;;;;;;;12.89;100.00;99062.75;5337593;27;20035;-72
2023/10/27 01:26:19;;;;;;;24.52;16.55;;;;;;;12.89;100.00;99074.06;5338909;27;20019;-73
2023/10/27 01:28:51;;;;;;;25.30;17.40;;;;;;;12.91;100.00;99071.25;5340526;27;20083;-73
2023/10/27 01:31:24;;;;;;;23.27;17.13;;;;;;;12.89;100.00;99063.56;5338104;27;20019;-72
2023/10/27 01:33:55;;;;;;;23.50;17.95;;;;;;;12.88;100.00;99061.13;5337643;27;20035;-72
2023/10/27 01:36:27;;;;;;;23.95;17.15;;;;;;;12.88;100.00;99061.13;5338831;27;20030;-72
2023/10/27 01:38:59;;;;;;;21.55;16.38;;;;;;;12.88;100.00;99061.94;5339144;27;20106;-73
2023/10/27 01:41:31;;;;;;;20.15;14.68;;;;;;;12.88;100.00;99064.56;5336603;27;20027;-72
2023/10/27 01:44:03;;;;;;;22.65;15.75;;;;;;;12.85;100.00;99064.94;5332651;27;20027;-72
2023/10/27 01:46:35;;;;;;;20.88;14.65;;;;;;;12.82;100.00;99062.69;5337068;27;20027;-72
2023/10/27 01:49:07;;;;;;;18.98;14.02;;;;;;;12.82;100.00;99067.94;5339860;27;20387;-72
2023/10/27 01:51:39;;;;;;;19.17;13.98;;;;;;;12.83;100.00;99056.41;5335194;27;20069;-72
2023/10/27 01:54:11;;;;;;;18.50;13.50;;;;;;;12.85;100.00;99057.06;5338722;27;20045;-72
2023/10/27 01:56:43;;;;;;;17.35;13.70;;;;;;;12.87;100.00;99055.03;5337861;27;20023;-72
2023/10/27 01:59:15;;;;;;;18.73;13.48;;;;;;;12.87;100.00;99054.22;5339089;27;20117;-73
2023/10/27 02:01:46;;;;;;;18.88;12.52;;;;;;;12.86;100.00;99058.66;5339733;27;20088;-72
2023/10/27 02:04:20;;;;;;;16.17;12.63;;;;;;;12.87;100.00;99054.22;5336969;27;20042;-72
2023/10/27 02:06:51;;;;;;;;;;;;;;;13.57;100.00;99045.47;5338340;27;20053;-72
2023/10/27 02:09:23;;;;;;;16.50;11.77;;;;;;;12.94;100.00;99052.47;5340948;27;19915;-72
2023/10/27 02:11:55;;;;;;;19.08;12.40;;;;;;;12.85;100.00;99048.34;5330796;27;20033;-72
2023/10/27 02:14:27;;;;;;;20.38;12.43;;;;;;;12.85;100.00;99043.91;5334934;27;20034;-72
2023/10/27 02:16:59;;;;;;;18.23;12.57;;;;;;;12.82;100.00;99041.66;5338606;27;20035;-72
2023/10/27 02:19:31;;;;;;;17.17;12.77;;;;;;;12.82;100.00;99035.59;5339502;27;20034;-72
2023/10/27 02:22:03;;;;;;;18.83;12.43;;;;;;;12.82;100.00;99031.16;5338498;27;20042;-72
2023/10/27 02:24:37;;;;;;;19.40;11.82;;;;;;;12.86;100.00;99032.38;5339479;27;20031;-72
2023/10/27 02:27:09;;;;;;;15.32;11.82;;;;;;;12.81;100.00;99031.34;5337969;27;20027;-72
2023/10/27 02:29:41;;;;;;;16.48;11.32;;;;;;;12.82;100.00;99025.88;5338874;27;20468;-72
2023/10/27 02:32:13;;;;;;;19.00;10.82;;;;;;;12.81;100.00;99026.91;5338958;27;20070;-72
2023/10/27 02:34:45;;;;;;;16.58;11.15;;;;;;;12.82;100.00;99028.50;5338787;27;20027;-72
2023/10/27 02:37:16;;;;;;;16.02;10.52;;;;;;;12.83;100.00;99021.44;5336572;27;20038;-72
2023/10/27 02:39:48;;;;;;;17.85;10.05;;;;;;;12.81;100.00;99024.28;5332302;27;20042;-72
2023/10/27 02:42:21;;;;;;;14.52;9.25;;;;;;;12.81;100.00;99021.66;5315179;27;20035;-72
2023/10/27 02:44:53;;;;;;;15.35;10.00;;;;;;;12.82;100.00;99020.63;5338611;27;20039;-72
2023/10/27 02:47:25;;;;;;;14.20;8.73;;;;;;;12.80;100.00;99022.63;5338648;27;20473;-72
2023/10/27 02:49:56;;;;;;;15.07;9.63;;;;;;;12.76;100.00;99018.75;5339382;27;20129;-72
2023/10/27 02:52:28;;;;;;;14.95;8.38;;;;;;;12.80;100.00;99021.81;5335862;27;20086;-72
2023/10/27 02:55:00;;;;;;;16.58;8.65;;;;;;;12.81;100.00;99015.56;5338149;27;20048;-72
2023/10/27 02:57:32;;;;;;;15.90;8.40;;;;;;;12.81;100.00;99013.75;5339405;27;20041;-72
2023/10/27 03:00:06;;;;;;;16.92;7.88;;;;;;;12.80;100.00;99016.56;5338784;27;20026;-72
2023/10/27 03:02:38;;;;;;;12.90;7.82;;;;;;;12.79;100.00;99005.25;5337427;27;20027;-72
2023/10/27 03:05:10;;;;;;;16.45;7.78;;;;;;;12.78;100.00;99003.63;5336967;27;20066;-72
2023/10/27 03:07:42;;;;;;;16.35;8.63;;;;;;;12.79;100.00;99009.69;5329430;27;20031;-72
2023/10/27 03:10:14;;;;;;;15.38;8.50;;;;;;;12.79;100.00;99007.88;5338666;27;20035;-72
2023/10/27 03:12:45;;;;;;;16.10;7.45;;;;;;;12.83;100.00;99010.94;5337282;27;20018;-72
2023/10/27 03:15:17;;;;;;;15.07;7.88;;;;;;;12.82;100.00;99004.88;5339005;27;20033;-72
2023/10/27 03:17:49;;;;;;;11.32;7.60;;;;;;;12.82;100.00;99004.88;5336816;27;20029;-72
2023/10/27 03:20:21;;;;;;;12.10;7.17;;;;;;;12.85;100.00;99003.69;5338176;27;20042;-72
2023/10/27 03:22:53;;;;;;;14.02;6.78;;;;;;;12.79;100.00;99004.44;5338059;27;20110;-72
2023/10/27 03:25:25;;;;;;;12.23;6.75;;;;;;;12.78;100.00;98998.38;5312644;27;20496;-72
2023/10/27 03:27:57;;;;;;;14.98;7.38;;;;;;;12.78;100.00;99000.19;5337294;27;20035;-72
2023/10/27 03:30:29;;;;;;;15.30;6.68;;;;;;;12.79;100.00;99002.59;5337929;27;20037;-72
2023/10/27 03:33:01;;;;;;;15.40;7.05;;;;;;;12.75;100.00;99006.63;5332700;27;20049;-72
2023/10/27 03:35:33;;;;;;;13.00;6.53;;;;;;;12.78;100.00;99000.19;5332075;27;20035;-72
2023/10/27 03:38:04;;;;;;;12.30;6.32;;;;;;;12.78;100.00;99002.81;5338078;27;20038;-72
2023/10/27 03:40:41;;;;;;;12.27;6.70;;;;;;;12.91;100.00;98992.41;5335008;27;20053;-72
2023/10/27 03:43:13;;;;;;;12.10;5.97;;;;;;;12.82;100.00;98996.97;5338079;27;20301;-72
2023/10/27 03:45:45;;;;;;;11.15;6.50;;;;;;;12.81;100.00;98994.56;5339301;27;20494;-72
2023/10/27 03:48:17;;;;;;;12.68;5.90;;;;;;;12.81;100.00;98995.38;5338293;27;20388;-72
2023/10/27 03:50:49;;;;;;;14.33;6.43;;;;;;;12.85;100.00;98991.34;5337700;27;20030;-72
2023/10/27 03:53:21;;;;;;;11.23;5.93;;;;;;;12.83;100.00;98995.16;5339238;27;20043;-72
2023/10/27 03:55:53;;;;;;;11.05;6.03;;;;;;;12.83;100.00;98989.91;5337751;27;20027;-72
2023/10/27 03:58:25;;;;;;;9.13;5.15;;;;;;;12.82;100.00;98991.72;5337326;27;20032;-72
2023/10/27 04:00:56;;;;;;;12.60;5.90;;;;;;;12.82;100.00;98999.59;5338271;27;20400;-72
2023/10/27 04:03:31;;;;;;;11.85;5.95;;;;;;;12.81;100.00;98991.94;5339373;27;20031;-72
2023/10/27 04:06:03;;;;;;;10.68;5.85;;;;;;;12.77;100.00;98980.16;5337610;27;20491;-72
2023/10/27 04:08:35;;;;;;;12.55;6.13;;;;;;;12.82;100.00;98988.28;5336470;27;20046;-72
2023/10/27 04:11:07;;;;;;;12.50;6.18;;;;;;;12.79;100.00;98991.28;5338178;27;20113;-72
2023/10/27 04:13:39;;;;;;;13.40;5.90;;;;;;;12.72;100.00;98982.53;5338127;28;20304;-72
2023/10/27 04:16:12;;;;;;;9.82;5.50;;;;;;;12.79;100.00;98989.47;5336615;28;20030;-72
2023/10/27 04:18:44;;;;;;;9.70;5.63;;;;;;;12.82;100.00;98991.72;5336952;27;20495;-72
2023/10/27 04:21:16;;;;;;;11.32;5.85;;;;;;;12.80;100.00;98991.09;5318546;28;20046;-72
2023/10/27 04:23:48;;;;;;;9.13;5.75;;;;;;;12.77;100.00;98991.50;5336027;28;20038;-72
2023/10/27 04:26:20;;;;;;;9.73;5.85;;;;;;;12.76;100.00;98994.28;5337495;28;20054;-72
2023/10/27 04:28:53;;;;;;;10.50;6.18;;;;;;;12.74;100.00;99001.56;5333453;28;20114;-72
2023/10/27 04:31:25;;;;;;;9.30;5.38;;;;;;;12.78;100.00;98993.09;5331420;28;20042;-72
2023/10/27 04:33:57;;;;;;;10.27;5.68;;;;;;;12.76;100.00;98983.78;5335680;28;20034;-72
2023/10/27 04:36:29;;;;;;;12.50;5.53;;;;;;;12.73;100.00;98992.88;5336231;28;20015;-72
2023/10/27 04:39:01;;;;;;;11.77;5.80;;;;;;;12.74;100.00;98993.69;5317673;28;20039;-72
2023/10/27 04:41:33;;;;;;;10.20;5.53;;;;;;;12.68;100.00;98986.53;5333342;28;20406;-72
2023/10/27 04:44:05;;;;;;;11.63;6.07;;;;;;;12.73;100.00;99000.75;5336736;28;20037;-72
2023/10/27 04:46:37;;;;;;;12.17;5.57;;;;;;;12.77;100.00;99007.25;5335076;28;20027;-72
2023/10/27 04:49:09;;;;;;;10.98;5.43;;;;;;;12.77;100.00;99002.00;5336666;27;20114;-72
2023/10/27 04:51:41;;;;;;;10.20;5.32;;;;;;;12.75;100.00;98988.22;5334359;28;20130;-72
2023/10/27 04:54:13;;;;;;;8.52;5.13;;;;;;;12.76;100.00;98996.91;5338131;28;20496;-72
2023/10/27 04:56:45;;;;;;;10.32;4.95;;;;;;;12.78;100.00;98994.94;5332988;28;20015;-72
2023/10/27 04:59:17;;;;;;;8.75;5.40;;;;;;;12.80;100.00;98990.28;5331313;28;20387;-72
2023/10/27 05:01:48;;;;;;;9.82;5.20;;;;;;;12.77;100.00;98991.50;5338144;28;20092;-72
2023/10/27 05:04:20;;;;;;;8.98;4.75;;;;;;;12.76;100.00;98984.59;5336014;28;20105;-72
2023/10/27 05:06:52;;;;;;;7.07;4.93;;;;;;;12.74;100.00;98976.09;5335681;27;20248;-72
2023/10/27 05:09:24;;;;;;;9.27;5.03;;;;;;;12.77;100.00;98980.97;5339508;27;20027;-72
2023/10/27 05:11:56;;;;;;;10.15;4.72;;;;;;;12.81;100.00;98976.16;5336357;27;20038;-72
2023/10/27 05:14:28;;;;;;;9.93;4.65;;;;;;;12.79;100.00;98978.16;5338360;27;20031;-71
2023/10/27 05:17:00;;;;;;;12.48;5.53;;;;;;;12.75;100.00;98969.03;5336483;27;20027;-72
2023/10/27 05:19:33;;;;;;;9.73;5.03;;;;;;;12.75;100.00;98974.28;5338562;27;20045;-72
2023/10/27 05:22:05;;;;;;;10.93;5.35;;;;;;;12.72;100.00;98975.47;5340689;27;20297;-72
2023/10/27 05:24:37;;;;;;;10.23;5.82;;;;;;;12.62;100.00;98972.38;5334917;27;20049;-72
2023/10/27 05:27:09;;;;;;;10.65;5.40;;;;;;;12.65;100.00;98977.22;5324152;27;20035;-72
2023/10/27 05:29:41;;;;;;;11.10;5.90;;;;;;;12.69;100.00;98982.91;5340189;27;20023;-72
2023/10/27 05:32:13;;;;;;;10.90;5.90;;;;;;;12.70;100.00;98971.41;5336635;27;20040;-72
2023/10/27 05:34:45;;;;;;;12.27;6.28;;;;;;;12.60;100.00;98955.97;5340041;27;20034;-72
2023/10/27 05:37:17;;;;;;;10.55;5.30;;;;;;;12.69;100.00;98967.16;5339226;27;20031;-72
2023/10/27 05:39:49;;;;;;;10.80;5.10;;;;;;;12.68;100.00;98966.34;5338794;27;20034;-72
2023/10/27 05:42:21;;;;;;;13.88;6.20;;;;;;;12.70;100.00;98969.59;5339690;27;20019;-71
2023/10/27 05:44:52;;;;;;;9.98;5.85;;;;;;;12.70;100.00;98966.97;5340501;27;20023;-72
2023/10/27 05:47:24;;;;;;;10.75;5.30;;;;;;;12.72;100.00;98967.56;5337558;27;20038;-72
2023/10/27 05:49:57;;;;;;;12.02;6.20;;;;;;;12.73;100.00;98969.22;5340188;27;20035;-72
2023/10/27 05:52:28;;;;;;;9.45;6.70;;;;;;;12.76;100.00;98968.00;5339933;27;20523;-73
2023/10/27 05:55:01;;;;;;;8.43;6.30;;;;;;;12.71;100.00;98965.16;5338474;27;20131;-73
2023/10/27 05:57:32;;;;;;;8.82;7.25;;;;;;;12.74;100.00;98968.22;5337643;27;20408;-73
2023/10/27 06:00:05;;;;;;;9.30;6.50;;;;;;;12.72;100.00;98969.41;5338430;27;20015;-72
2023/10/27 06:02:37;;;;;;;7.85;6.45;;;;;;;12.78;100.00;98977.34;5338303;27;20031;-72
2023/10/27 06:05:09;;;;;;;6.95;6.13;;;;;;;12.74;100.00;98973.47;5336389;27;20412;-72
2023/10/27 06:07:41;;;;;;;7.05;6.35;;;;;;;12.73;100.00;98973.63;5338810;27;20057;-72
2023/10/27 06:10:13;;;;;;;9.90;7.68;;;;;;;12.71;100.00;98958.09;5340052;27;20038;-71
2023/10/27 06:12:45;;;;;;;8.45;6.97;;;;;;;12.69;100.00;98973.25;5313819;27;20113;-72
2023/10/27 06:15:17;;;;;;;10.30;6.53;;;;;;;12.68;100.00;98976.03;5337514;27;20504;-72
2023/10/27 06:17:49;;;;;;;10.63;7.38;;;;;;;12.68;100.00;98976.03;5337578;27;20027;-72
2023/10/27 06:20:22;;;;;;;8.20;6.57;;;;;;;12.68;100.00;98981.28;5335168;27;20499;-72
2023/10/27 06:22:54;;;;;;;9.07;6.30;;;;;;;12.66;100.00;98974.41;5337869;27;20031;-72
2023/10/27 06:25:25;;;;;;;8.68;6.32;;;;;;;12.59;100.00;98978.81;5337760;27;20536;-72
2023/10/27 06:27:57;;;;;;;10.45;6.20;;;;;;;12.65;100.00;98980.69;5335694;27;20484;-72
2023/10/27 06:30:29;;;;;;;9.25;6.55;;;;;;;12.63;100.00;98981.88;5329077;27;20049;-73
2023/10/27 06:33:02;;;;;;;7.88;6.10;;;;;;;12.70;100.00;98988.00;5335458;27;20035;-73
2023/10/27 06:35:34;;;;;;;;;;;;;;;13.44;100.00;98982.25;5334922;27;20022;-72
2023/10/27 06:38:06;;;;;;;8.10;6.65;;;;;;;12.79;100.00;98989.47;5334648;27;19919;-72
2023/10/27 06:40:38;;;;;;;7.55;5.95;;;;;;;12.76;100.00;98984.59;5337132;27;20023;-72
2023/10/27 06:43:10;;;;;;;6.72;5.93;;;;;;;12.76;100.00;98986.41;5336033;27;20575;-72
2023/10/27 06:45:42;;;;;;;10.15;6.22;;;;;;;12.75;100.00;98993.47;5336498;27;20035;-72
2023/10/27 06:48:14;;;;;;;7.95;5.93;;;;;;;12.76;100.00;98991.66;5327246;27;20420;-72
2023/10/27 06:50:46;;;;;;;7.55;6.22;;;;;;;12.74;100.00;98999.75;5332881;27;20034;-72
2023/10/27 06:53:18;;;;;;;7.10;5.85;;;;;;;12.74;100.00;98998.94;5336640;27;20043;-72
2023/10/27 06:55:49;;;;;;;7.20;5.93;;;;;;;12.73;100.00;99000.75;5335170;27;20035;-72
2023/10/27 06:58:21;;;;;;;6.53;5.65;;;;;;;12.73;100.00;98998.13;5334042;27;20035;-72
2023/10/27 07:00:53;;;;;;;7.60;5.60;;;;;;;12.73;100.00;99007.81;5333570;27;20492;-72
2023/10/27 07:03:25;;;;;;;6.05;5.25;;;;;;;12.74;100.00;99001.56;5336228;27;20150;-73
2023/10/27 07:05:57;;;;;;;6.13;5.43;;;;;;;12.74;100.00;98997.13;5337033;27;20066;-72
2023/10/27 07:08:32;;;;;;;6.65;5.80;;;;;;;12.82;100.00;99004.88;5336335;27;20060;-72
2023/10/27 07:11:04;;;;;;;6.25;5.53;;;;;;;12.75;100.00;99004.00;5312580;27;20053;-72
2023/10/27 07:13:36;;;;;;;6.97;5.68;;;;;;;12.77;100.00;99012.50;5336991;27;20027;-72
2023/10/27 07:16:08;;;;;;;7.53;4.95;;;;;;;12.77;100.00;99015.16;5329034;27;20023;-72
2023/10/27 07:18:40;;;;;;;7.53;5.78;;;;;;;12.77;100.00;99020.41;5335587;27;20484;-72
2023/10/27 07:21:12;;;;;;;7.22;5.35;;;;;;;12.75;100.00;99013.69;5336276;27;20027;-72
2023/10/27 07:23:44;;;;;;;7.28;5.65;;;;;;;12.79;100.00;99028.88;5332092;27;20046;-72
2023/10/27 07:26:17;;;;;;;6.53;5.78;;;;;;;12.77;100.00;99023.03;5332842;27;20045;-72
2023/10/27 07:28:48;;;;;;;6.25;5.55;;;;;;;12.82;100.00;99025.09;5334057;27;20046;-72
2023/10/27 07:31:20;;;;;;;6.68;5.53;;;;;;;12.80;100.00;99027.06;5331670;27;20027;-72
2023/10/27 07:33:53;;;;;;;5.40;4.80;;;;;;;12.83;100.00;99031.94;5334713;27;20023;-72
2023/10/27 07:36:25;;;;;;;7.47;5.93;;;;;;;12.86;100.00;99028.94;5334036;27;20049;-72
2023/10/27 07:38:58;;;;;;;7.30;5.40;;;;;;;12.81;100.00;99037.41;5336625;27;20114;-72
2023/10/27 07:41:31;;;;;;;8.38;5.63;;;;;;;12.83;100.00;99038.03;5333046;27;20038;-73
2023/10/27 07:44:03;;;;;;;7.43;5.78;;;;;;;12.84;100.00;99042.28;5326072;27;20034;-73
2023/10/27 07:46:35;;;;;;;6.53;5.18;;;;;;;12.84;100.00;99039.66;5333324;27;20035;-72
2023/10/27 07:49:07;;;;;;;6.07;5.35;;;;;;;12.82;100.00;99043.47;5333834;27;20049;-72
2023/10/27 07:51:39;;;;;;;6.82;5.78;;;;;;;12.82;100.00;99041.66;5309735;27;20043;-72
2023/10/27 07:54:11;;;;;;;6.30;5.15;;;;;;;12.84;100.00;99055.44;5335752;27;20121;-72
2023/10/27 07:56:43;;;;;;;5.40;4.55;;;;;;;12.87;100.00;99052.41;5333196;27;20140;-72
2023/10/27 07:59:15;;;;;;;6.30;5.35;;;;;;;12.88;100.00;99048.00;5336141;27;20088;-72
2023/10/27 08:01:46;;;;;;;5.65;5.15;;;;;;;12.89;100.00;99052.22;5334362;27;20031;-72
2023/10/27 08:04:19;;;;;;;6.43;5.28;;;;;;;12.92;100.00;99057.13;5335240;27;20020;-73
2023/10/27 08:06:52;;;;;;;6.25;5.65;;;;;;;12.87;100.00;99057.66;5338022;27;20038;-73
2023/10/27 08:09:24;;;;;;;7.05;5.90;;;;;;;12.90;100.00;99051.22;5328799;27;20047;-73
2023/10/27 08:11:55;;;;;;;6.25;5.45;;;;;;;12.91;100.00;99052.84;5335714;27;20392;-73
2023/10/27 08:14:27;;;;;;;7.28;5.45;;;;;;;12.90;100.00;99043.34;5333217;28;20033;-73
2023/10/27 08:16:59;;;;;;;6.15;5.55;;;;;;;12.90;100.00;99049.41;5334086;28;20115;-73
2023/10/27 08:19:31;;;;;;;6.07;5.25;;;;;;;12.89;100.00;99050.41;5336018;28;20033;-73
2023/10/27 08:22:03;;;;;;;6.88;6.10;;;;;;;12.90;100.00;99061.75;5336443;28;20057;-73
2023/10/27 08:24:36;;;;;;;6.18;5.53;;;;;;;12.91;100.00;99060.72;5316133;28;20154;-73
2023/10/27 08:27:08;;;;;;;7.00;5.38;;;;;;;12.96;100.00;99068.88;5335809;28;20364;-73
2023/10/27 08:29:40;;;;;;;5.82;5.22;;;;;;;12.94;100.00;99072.69;5335444;27;20102;-72
2023/10/27 08:32:13;;;;;;;5.53;5.03;;;;;;;12.94;100.00;99076.13;5335382;28;20023;-73
2023/10/27 08:34:45;;;;;;;5.65;4.80;;;;;;;12.94;100.00;99075.31;5335821;28;20368;-73
2023/10/27 08:37:17;;;;;;;4.70;4.30;;;;;;;12.95;100.00;99079.56;5328888;28;20023;-74
2023/10/27 08:39:49;;;;;;;5.20;4.70;;;;;;;12.95;100.00;99076.94;5335710;28;20031;-73
2023/10/27 08:42:21;;;;;;;5.18;4.68;;;;;;;12.98;100.00;99081.81;5337176;27;20458;-73
2023/10/27 08:44:54;;;;;;;6.03;4.53;;;;;;;12.99;100.00;99076.38;5339142;27;20043;-73
2023/10/27 08:47:30;;;;;;;4.90;4.40;;;;;;;13.01;100.00;99084.06;5340463;27;20476;-73
2023/10/27 08:50:04;;;;;;;4.97;4.15;;;;;;;12.99;100.00;99084.25;5338910;27;20027;-73
2023/10/27 08:52:36;;;;;;;5.40;4.90;;;;;;;13.02;100.00;99086.50;5338438;27;20494;-74
2023/10/27 08:55:10;;;;;;;6.20;5.13;;;;;;;13.06;100.00;99086.94;5338976;27;20037;-75
2023/10/27 08:57:42;;;;;;;5.68;5.18;;;;;;;13.04;100.00;99081.09;5336689;27;20069;-73
2023/10/27 09:00:14;;;;;;;6.28;5.15;;;;;;;13.06;100.00;99081.69;5341607;27;20380;-73
2023/10/27 09:02:45;;;;;;;6.30;5.70;;;;;;;13.07;100.00;99086.78;5339284;27;20043;-73
2023/10/27 09:05:17;;;;;;;6.25;5.65;;;;;;;13.02;100.00;99078.63;5329711;27;20033;-73
2023/10/27 09:07:49;;;;;;;6.93;5.82;;;;;;;13.07;100.00;99083.34;5339924;27;20050;-73
2023/10/27 09:10:21;;;;;;;7.60;6.13;;;;;;;13.09;100.00;99095.28;5338569;27;20027;-73
2023/10/27 09:12:57;;;;;;;7.00;5.97;;;;;;;13.17;100.00;99096.94;5340803;27;20038;-74
2023/10/27 09:15:41;;;;;;;7.40;6.57;;;;;;;13.33;100.00;99095.88;5339619;27;20023;-73
2023/10/27 09:18:13;;;;;;;6.60;5.90;;;;;;;13.11;100.00;99093.28;5338526;27;20030;-73
2023/10/27 09:20:48;;;;;;;7.10;6.40;;;;;;;13.18;100.00;99092.50;5321254;27;20567;-73
2023/10/27 09:23:20;;;;;;;8.23;5.75;;;;;;;13.18;100.00;99092.50;5338184;27;20032;-73
2023/10/27 09:25:56;;;;;;;7.33;6.60;;;;;;;13.33;100.00;99088.00;5339096;27;20027;-72
2023/10/27 09:28:29;;;;;;;6.90;6.20;;;;;;;13.22;100.00;99096.38;5339172;27;20034;-73
2023/10/27 09:31:01;;;;;;;6.82;6.13;;;;;;;13.22;100.00;99080.59;5334309;27;20024;-73
2023/10/27 09:33:33;;;;;;;7.50;6.28;;;;;;;13.20;100.00;99083.44;5337150;27;20027;-73
2023/10/27 09:36:07;;;;;;;8.63;6.38;;;;;;;13.26;100.00;99093.22;5335639;27;20529;-73
2023/10/27 09:38:40;;;;;;;6.22;5.63;;;;;;;13.27;100.00;99086.16;5339554;27;20027;-74
2023/10/27 09:41:14;;;;;;;8.57;7.10;;;;;;;13.34;100.00;99098.34;5318852;27;20045;-73
2023/10/27 09:43:47;;;;;;;8.20;7.10;;;;;;;13.32;100.00;99095.09;5338468;27;20361;-74
2023/10/27 09:46:19;;;;;;;7.25;6.43;;;;;;;13.37;100.00;99090.09;5338388;27;20031;-73
2023/10/27 09:48:58;;;;;;;9.05;7.25;;;;;;;13.40;100.00;99099.38;5338305;27;20388;-73
2023/10/27 09:51:30;;;;;;;9.10;7.50;;;;;;;13.39;100.00;99095.13;5338663;27;20036;-73
2023/10/27 09:54:03;;;;;;;9.10;7.90;;;;;;;13.43;100.00;99085.84;5334965;27;20476;-73
2023/10/27 09:56:35;;;;;;;9.77;8.50;;;;;;;13.50;100.00;99086.72;5338419;27;20023;-73
2023/10/27 09:59:07;;;;;;;10.02;8.38;;;;;;;13.62;100.00;99093.06;5328047;27;20034;-73
2023/10/27 10:01:39;;;;;;;9.45;8.45;;;;;;;13.62;100.00;99082.53;5339520;27;20388;-75
2023/10/27 10:04:11;;;;;;;10.00;8.98;;;;;;;13.69;100.00;99089.69;5337911;27;20031;-73
2023/10/27 10:06:43;;;;;;;9.18;8.27;;;;;;;13.66;100.00;99090.88;5334967;27;20027;-73
2023/10/27 10:09:15;;;;;;;9.55;8.65;;;;;;;13.63;100.00;99107.84;5337838;27;20034;-74
2023/10/27 10:11:47;;;;;;;9.20;8.25;;;;;;;13.64;100.00;99108.69;5318192;27;20484;-74
2023/10/27 10:14:49;;;;;;;9.35;7.70;;;;;;;13.98;100.00;99114.94;5339709;27;20388;-74
2023/10/27 10:17:40;;;;;;;9.00;8.07;;;;;;;13.86;100.00;99112.03;5339616;27;20022;-73
2023/10/27 10:20:12;;;;;;;10.15;8.50;;;;;;;13.58;100.00;99109.44;5334765;27;20027;-73
2023/10/27 10:22:48;;;;;;;8.93;8.00;;;;;;;13.69;100.00;99108.91;5337363;27;20011;-73
2023/10/27 10:25:23;;;;;;;8.63;7.38;;;;;;;13.62;100.00;99110.69;5327522;27;20024;-74
2023/10/27 10:28:17;;;;;;;8.60;7.70;;;;;;;13.91;100.00;99106.22;5337869;27;20031;-73
2023/10/27 10:31:07;;;;;;;8.90;7.85;;;;;;;13.88;100.00;99115.31;5335286;27;20023;-73
2023/10/27 10:33:40;;;;;;;9.32;8.43;;;;;;;13.53;100.00;99111.84;5336546;27;20039;-73
2023/10/27 10:36:18;;;;;;;9.00;8.10;;;;;;;13.53;100.00;99117.91;5333999;27;20420;-73
2023/10/27 10:38:49;;;;;;;9.82;8.65;;;;;;;13.49;100.00;99110.59;5337752;27;20023;-73
2023/10/27 10:41:43;;;;;;;10.75;9.65;;;;;;;13.55;100.00;99110.63;5336153;27;20030;-73
2023/10/27 10:44:16;;;;;;;13.20;11.13;;;;;;;13.41;100.00;99114.19;5336937;27;20384;-73
2023/10/27 10:46:49;;;;;;;14.07;12.65;;;;;;;13.48;100.00;99111.59;5338320;27;20023;-72
2023/10/27 10:49:23;;;;;;;14.38;12.90;;;;;;;13.45;100.00;99110.16;5312234;27;20031;-73
2023/10/27 10:51:55;;;;;;;15.88;12.30;;;;;;;13.44;100.00;99107.72;5336451;27;20043;-74
2023/10/27 10:54:32;;;;;;;15.82;13.32;;;;;;;13.62;100.00;99119.38;5337680;27;20031;-74
2023/10/27 10:57:09;;;;;;;14.27;12.05;;;;;;;13.58;100.00;99110.25;5335212;27;20035;-73
2023/10/27 10:59:51;;;;;;;13.82;11.50;;;;;;;13.79;100.00;99105.94;5335324;27;20023;-74
2023/10/27 11:02:23;;;;;;;12.75;11.10;;;;;;;13.66;100.00;99111.91;5337073;27;20027;-73
2023/10/27 11:04:57;;;;;;;12.85;11.02;;;;;;;13.70;100.00;99113.16;5336572;27;20048;-73
2023/10/27 11:07:29;;;;;;;11.05;9.85;;;;;;;13.74;100.00;99105.69;5337901;27;20038;-73
2023/10/27 11:10:17;;;;;;;14.23;9.85;;;;;;;14.03;100.00;99105.47;5336408;27;20027;-74
2023/10/27 11:12:49;;;;;;;11.75;9.73;;;;;;;13.85;100.00;99111.22;5334938;27;20043;-74
2023/10/27 11:15:44;;;;;;;11.13;8.95;;;;;;;14.14;100.00;99103.28;5334786;27;20030;-74
2023/10/27 11:18:16;;;;;;;9.52;7.93;;;;;;;13.94;100.00;99106.66;5336687;27;20038;-74
2023/10/27 11:20:49;;;;;;;9.30;7.30;;;;;;;13.99;100.00;99111.31;5331229;27;20050;-73
2023/10/27 11:23:26;;;;;;;8.82;6.50;;;;;;;14.07;100.00;99100.63;5329515;27;20034;-73
2023/10/27 11:26:03;;;;;;;9.30;6.05;;;;;;;14.12;100.00;99106.91;5334621;27;20033;-73
2023/10/27 11:28:42;;;;;;;8.80;6.53;;;;;;;14.20;100.00;99105.94;5337093;27;20031;-73
2023/10/27 11:31:23;;;;;;;6.68;5.50;;;;;;;14.25;100.00;99106.19;5336224;27;20365;-74
2023/10/27 11:34:02;;;;;;;9.38;5.93;;;;;;;14.18;100.00;99110.59;5334507;27;20042;-74
2023/10/27 11:36:36;;;;;;;9.98;5.50;;;;;;;14.13;100.00;99115.66;5314998;27;20036;-74
2023/10/27 11:39:10;;;;;;;;;;;;;;;14.81;100.00;99100.72;5335569;27;20511;-74
2023/10/27 11:41:43;;;;;;;8.68;5.13;;;;;;;14.25;100.00;99102.72;5328408;27;19912;-74
2023/10/27 11:44:16;;;;;;;;;;;;;;;14.95;100.00;99101.53;5337045;27;20031;-74
2023/10/27 11:46:49;;;;;;;5.90;4.68;;;;;;;14.32;100.00;99103.56;5333178;27;20406;-74